Time;durP1;ratioP1;P1;durP2;ratioP2;P2;SDS_P1;SDS_P2;PMS_P1;PMS_P2;Temp;Humidity;BMP_temperature;BMP_pressure;BME280_temperature;BME280_humidity;BME280_pressure;Samples;Min_cycle;Max_cycle;Signal;HPM_P1;HPM_P2
2021/07/24 00:00:41;;;;;;;5.77;5.13;;;21.80;91.90;;;;;;5006425;28;20199;-82
2021/07/24 00:03:07;;;;;;;5.50;5.00;;;21.80;91.70;;;;;;5005581;28;20186;-82
2021/07/24 00:05:33;;;;;;;5.07;4.57;;;21.80;91.90;;;;;;5017366;28;20178;-83
2021/07/24 00:07:59;;;;;;;5.57;5.07;;;21.80;92.20;;;;;;5020926;28;20174;-82
2021/07/24 00:10:24;;;;;;;6.47;5.80;;;21.80;92.30;;;;;;5019210;28;21226;-82
2021/07/24 00:12:50;;;;;;;5.27;4.87;;;21.80;92.60;;;;;;5019908;28;20175;-83
2021/07/24 00:15:16;;;;;;;5.73;5.13;;;21.80;92.80;;;;;;5018720;28;20170;-82
2021/07/24 00:17:42;;;;;;;5.67;5.17;;;21.70;93.00;;;;;;5020123;28;21142;-82
2021/07/24 00:20:08;;;;;;;6.03;5.43;;;21.70;93.20;;;;;;5019564;28;20705;-82
2021/07/24 00:22:34;;;;;;;6.20;5.60;;;21.80;93.50;;;;;;5018743;28;20194;-83
2021/07/24 00:25:00;;;;;;;6.30;5.53;;;21.70;93.80;;;;;;5016914;28;21385;-81
2021/07/24 00:27:26;;;;;;;5.70;5.17;;;21.70;93.90;;;;;;5016738;28;20581;-83
2021/07/24 00:29:54;;;;;;;4.77;4.33;;;21.70;94.10;;;;;;5017344;28;20177;-83
2021/07/24 00:32:22;;;;;;;6.90;5.40;;;21.70;94.20;;;;;;5014053;28;20202;-83
2021/07/24 00:34:48;;;;;;;6.17;5.53;;;21.60;94.60;;;;;;5012358;28;20567;-83
2021/07/24 00:37:18;;;;;;;5.40;5.00;;;21.60;94.70;;;;;;5025748;28;20605;-82
2021/07/24 00:39:44;;;;;;;6.87;5.50;;;21.70;95.00;;;;;;5023249;28;20184;-83
2021/07/24 00:42:23;;;;;;;6.43;5.73;;;21.60;95.30;;;;;;5023127;28;20569;-83
2021/07/24 00:44:51;;;;;;;6.17;5.57;;;21.60;95.70;;;;;;5021958;28;20166;-83
2021/07/24 00:47:19;;;;;;;5.50;5.00;;;21.60;95.50;;;;;;5021545;28;20676;-83
2021/07/24 00:49:48;;;;;;;7.00;6.30;;;21.60;95.80;;;;;;5005040;28;20720;-83
2021/07/24 00:52:15;;;;;;;6.20;5.60;;;21.60;96.10;;;;;;5005677;28;20699;-83
2021/07/24 00:54:41;;;;;;;5.87;5.30;;;21.60;96.40;;;;;;5023381;28;20561;-83
2021/07/24 00:57:08;;;;;;;5.70;5.20;;;21.60;96.60;;;;;;5023541;28;20557;-83
2021/07/24 00:59:35;;;;;;;6.50;5.63;;;21.50;96.80;;;;;;5022654;28;20612;-83
2021/07/24 01:02:05;;;;;;;6.33;5.83;;;21.50;97.00;;;;;;5043304;28;20628;-83
2021/07/24 01:04:31;;;;;;;5.87;5.30;;;21.40;97.10;;;;;;5040247;28;20584;-83
2021/07/24 01:06:59;;;;;;;5.73;5.10;;;21.40;97.40;;;;;;5042071;28;20630;-83
2021/07/24 01:09:26;;;;;;;6.13;5.60;;;21.40;97.60;;;;;;5032604;28;20952;-83
2021/07/24 01:11:52;;;;;;;6.30;5.70;;;21.30;97.90;;;;;;5032836;28;20998;-83
2021/07/24 01:14:18;;;;;;;6.50;6.00;;;21.30;98.10;;;;;;5043360;28;20569;-83
2021/07/24 01:16:45;;;;;;;6.50;5.90;;;21.20;98.30;;;;;;5039499;28;20560;-83
2021/07/24 01:19:19;;;;;;;7.20;6.50;;;21.20;98.60;;;;;;5039459;28;21118;-83
2021/07/24 01:21:45;;;;;;;8.20;6.10;;;21.20;98.80;;;;;;5022093;28;20604;-83
2021/07/24 01:24:11;;;;;;;7.67;6.87;;;21.10;99.00;;;;;;5038996;28;20569;-83
2021/07/24 01:26:43;;;;;;;7.83;7.07;;;21.10;99.30;;;;;;5021742;28;20586;-83
2021/07/24 01:29:17;;;;;;;7.10;6.40;;;21.10;99.60;;;;;;5040805;28;20568;-83
2021/07/24 01:31:44;;;;;;;6.77;6.07;;;21.00;99.90;;;;;;5038834;28;20639;-83
2021/07/24 01:34:12;;;;;;;7.07;6.37;;;21.00;99.90;;;;;;5022933;28;20925;-83
2021/07/24 01:36:38;;;;;;;7.30;6.60;;;21.00;99.90;;;;;;5038562;28;20655;-83
2021/07/24 01:39:04;;;;;;;7.57;6.73;;;21.00;99.90;;;;;;5038714;28;20565;-83
2021/07/24 01:41:32;;;;;;;7.00;6.40;;;20.90;99.90;;;;;;5021693;28;20942;-83
2021/07/24 01:43:58;;;;;;;7.03;6.33;;;20.90;99.90;;;;;;5021066;28;20572;-83
2021/07/24 01:46:24;;;;;;;7.40;6.17;;;20.90;99.90;;;;;;5037979;28;21039;-84
2021/07/24 01:49:11;;;;;;;6.77;6.00;;;20.90;99.90;;;;;;5035303;28;20911;-83
2021/07/24 01:54:42;;;;;;;6.57;6.00;;;20.90;99.90;;;;;;5036098;28;20564;-83
2021/07/24 01:57:11;;;;;;;8.17;6.70;;;20.90;99.90;;;;;;5018819;28;20675;-83
2021/07/24 01:59:45;;;;;;;7.30;6.23;;;20.80;99.90;;;;;;5039530;28;21111;-83
2021/07/24 02:02:14;;;;;;;7.90;6.60;;;20.80;99.90;;;;;;5057801;28;20603;-83
2021/07/24 02:04:51;;;;;;;6.40;5.80;;;20.80;99.90;;;;;;5056759;28;20586;-83
2021/07/24 02:07:23;;;;;;;6.30;5.70;;;20.70;99.90;;;;;;5058662;28;20574;-83
2021/07/24 02:09:50;;;;;;;7.27;6.57;;;20.70;99.90;;;;;;5059398;28;20567;-83
2021/07/24 02:12:23;;;;;;;6.60;6.00;;;20.70;99.90;;;;;;5058016;28;20631;-83
2021/07/24 02:14:49;;;;;;;7.80;7.00;;;20.60;99.90;;;;;;5056874;28;20572;-83
2021/07/24 02:17:23;;;;;;;8.07;7.37;;;20.60;99.90;;;;;;5040266;28;20196;-83
2021/07/24 02:19:49;;;;;;;7.60;6.77;;;20.50;99.90;;;;;;5057572;28;20990;-83
2021/07/24 02:22:16;;;;;;;7.37;6.77;;;20.50;99.90;;;;;;5057011;28;20695;-83
2021/07/24 02:24:48;;;;;;;6.83;6.13;;;20.50;99.90;;;;;;5056173;28;20576;-83
2021/07/24 02:27:16;;;;;;;7.37;6.57;;;20.40;99.90;;;;;;5059513;28;20567;-83
2021/07/24 02:29:43;;;;;;;7.40;6.80;;;20.40;99.90;;;;;;5056925;28;20649;-82
2021/07/24 02:32:11;;;;;;;7.00;6.30;;;20.40;99.90;;;;;;5039346;28;20623;-83
2021/07/24 02:34:36;;;;;;;7.50;6.90;;;20.30;99.90;;;;;;5057118;28;20564;-83
2021/07/24 02:37:02;;;;;;;8.13;6.60;;;20.30;99.90;;;;;;5055705;28;20171;-83
2021/07/24 02:39:29;;;;;;;8.40;7.60;;;20.30;99.90;;;;;;5056668;28;20219;-82
2021/07/24 02:41:56;;;;;;;7.10;6.50;;;20.30;99.90;;;;;;5055765;28;20592;-83
2021/07/24 02:44:22;;;;;;;8.13;7.33;;;20.30;99.90;;;;;;5055839;28;20564;-83
2021/07/24 02:46:48;;;;;;;9.90;7.37;;;20.20;99.90;;;;;;5039032;28;20607;-83
2021/07/24 02:49:21;;;;;;;9.40;7.70;;;20.20;99.90;;;;;;5055251;28;20574;-82
2021/07/24 02:51:48;;;;;;;8.53;7.73;;;20.20;99.90;;;;;;5054453;28;20658;-83
2021/07/24 02:54:17;;;;;;;8.17;7.40;;;20.20;99.90;;;;;;5059311;28;20617;-82
2021/07/24 02:56:48;;;;;;;7.73;7.03;;;20.10;99.90;;;;;;5059173;28;20564;-82
2021/07/24 02:59:13;;;;;;;9.83;7.37;;;20.20;99.90;;;;;;5057371;28;20582;-82
2021/07/24 03:01:40;;;;;;;8.47;7.30;;;20.10;99.90;;;;;;5032947;28;20209;-82
2021/07/24 03:04:07;;;;;;;9.43;7.13;;;20.10;99.90;;;;;;5027990;28;21213;-81
2021/07/24 03:06:59;;;;;;;8.20;7.00;;;20.10;99.90;;;;;;5037936;28;20564;-82
2021/07/24 03:09:25;;;;;;;7.50;6.80;;;20.10;99.90;;;;;;5055613;28;20600;-82
2021/07/24 03:11:51;;;;;;;8.03;7.20;;;20.10;99.90;;;;;;5056628;28;20622;-82
2021/07/24 03:14:16;;;;;;;8.57;7.70;;;20.10;99.90;;;;;;5057324;28;20184;-82
2021/07/24 03:16:42;;;;;;;8.33;7.57;;;20.10;99.90;;;;;;5056460;28;20169;-82
2021/07/24 03:19:08;;;;;;;7.27;6.57;;;20.10;99.90;;;;;;5056120;28;20191;-81
2021/07/24 03:21:34;;;;;;;8.00;7.13;;;20.10;99.90;;;;;;5047092;28;20181;-82
2021/07/24 03:23:59;;;;;;;8.37;7.13;;;20.10;99.90;;;;;;5042944;28;20161;-82
2021/07/24 03:26:25;;;;;;;9.20;7.57;;;20.10;99.90;;;;;;5043610;28;20194;-82
2021/07/24 03:28:51;;;;;;;8.77;7.70;;;20.10;99.90;;;;;;5041693;28;20170;-82
2021/07/24 03:31:17;;;;;;;7.57;6.87;;;20.00;99.90;;;;;;5042982;28;20224;-82
2021/07/24 03:33:42;;;;;;;9.27;7.33;;;20.00;99.90;;;;;;5044162;28;20571;-82
2021/07/24 03:36:08;;;;;;;7.70;6.90;;;20.00;99.90;;;;;;5041831;28;20161;-82
2021/07/24 03:38:34;;;;;;;8.90;8.00;;;20.00;99.90;;;;;;5038997;28;20169;-82
2021/07/24 03:41:03;;;;;;;8.37;7.57;;;20.00;99.90;;;;;;5040963;28;20686;-82
2021/07/24 03:43:30;;;;;;;8.10;7.40;;;20.00;99.90;;;;;;5041080;28;20173;-82
2021/07/24 03:45:56;;;;;;;8.30;7.50;;;20.00;99.90;;;;;;5039863;28;20576;-82
2021/07/24 03:48:21;;;;;;;7.37;6.67;;;20.00;99.90;;;;;;5039854;28;20564;-82
2021/07/24 03:50:47;;;;;;;9.30;8.43;;;20.10;99.90;;;;;;5039695;28;20204;-82
2021/07/24 03:53:13;;;;;;;9.13;8.30;;;20.10;99.90;;;;;;5037577;28;20157;-79
2021/07/24 03:55:39;;;;;;;8.10;7.30;;;20.10;99.90;;;;;;5032239;28;20166;-80
2021/07/24 03:58:05;;;;;;;7.23;6.53;;;20.20;99.90;;;;;;5031691;28;20821;-80
2021/07/24 04:00:38;;;;;;;9.00;6.77;;;20.20;99.90;;;;;;5031602;28;20198;-80
2021/07/24 04:03:04;;;;;;;7.30;6.67;;;20.30;99.90;;;;;;5029914;28;20190;-80
2021/07/24 04:05:34;;;;;;;8.20;7.40;;;20.30;99.90;;;;;;5031873;28;20560;-80
2021/07/24 04:08:00;;;;;;;9.20;8.40;;;20.40;99.90;;;;;;5031674;28;20172;-80
2021/07/24 04:10:26;;;;;;;7.27;6.67;;;20.50;99.90;;;;;;5030183;28;20604;-80
2021/07/24 04:12:53;;;;;;;7.63;6.93;;;20.50;99.90;;;;;;5032184;28;21170;-80
2021/07/24 04:15:20;;;;;;;7.67;7.07;;;20.60;99.90;;;;;;5035708;28;20169;-80
2021/07/24 04:17:46;;;;;;;8.17;7.37;;;20.60;99.90;;;;;;5040829;28;20923;-80
2021/07/24 04:20:12;;;;;;;12.77;7.93;;;20.60;99.90;;;;;;5034332;28;20719;-80
2021/07/24 04:22:38;;;;;;;7.57;6.97;;;20.70;99.90;;;;;;5035375;28;20651;-80
2021/07/24 04:25:04;;;;;;;7.13;6.53;;;20.70;99.90;;;;;;5035548;28;20659;-80
2021/07/24 04:27:29;;;;;;;7.27;6.67;;;20.80;99.90;;;;;;5035129;28;20169;-80
2021/07/24 04:29:58;;;;;;;7.80;6.43;;;20.80;99.90;;;;;;5033637;28;20576;-81
2021/07/24 04:32:24;;;;;;;7.77;7.00;;;20.90;99.90;;;;;;5035216;28;20194;-80
2021/07/24 04:34:50;;;;;;;6.83;6.20;;;20.90;99.90;;;;;;5035155;28;20567;-80
2021/07/24 04:37:16;;;;;;;8.73;8.00;;;21.00;99.90;;;;;;5035171;28;20568;-80
2021/07/24 04:39:42;;;;;;;8.10;7.30;;;21.00;99.90;;;;;;5035231;28;20170;-80
2021/07/24 04:42:07;;;;;;;7.37;6.67;;;21.10;99.90;;;;;;5061433;28;20211;-80
2021/07/24 04:44:33;;;;;;;7.23;6.70;;;21.10;99.90;;;;;;5075566;28;20196;-80
2021/07/24 04:46:59;;;;;;;7.43;6.70;;;21.10;99.90;;;;;;5062644;28;20187;-80
2021/07/24 04:49:25;;;;;;;7.70;7.10;;;21.20;99.90;;;;;;5066462;28;20185;-80
2021/07/24 04:51:50;;;;;;;7.43;6.83;;;21.20;99.90;;;;;;5069974;28;20206;-80
2021/07/24 04:54:16;;;;;;;6.90;6.40;;;21.20;99.90;;;;;;5056543;28;20287;-80
2021/07/24 04:56:42;;;;;;;8.53;6.00;;;21.20;99.90;;;;;;5079636;28;20169;-80
2021/07/24 04:59:09;;;;;;;8.00;7.20;;;21.20;99.90;;;;;;5069258;28;20576;-80
2021/07/24 05:01:35;;;;;;;8.50;7.60;;;21.30;99.90;;;;;;5086248;28;20625;-80
2021/07/24 05:04:03;;;;;;;8.10;7.20;;;21.30;99.90;;;;;;5089973;28;20579;-80
2021/07/24 05:06:30;;;;;;;7.20;6.50;;;21.40;99.90;;;;;;5091730;28;20585;-80
2021/07/24 05:08:56;;;;;;;8.73;7.70;;;21.40;99.90;;;;;;5078738;28;20982;-80
2021/07/24 05:11:22;;;;;;;8.20;7.40;;;21.40;99.90;;;;;;5078604;28;20633;-80
2021/07/24 05:13:47;;;;;;;7.30;6.70;;;21.50;99.90;;;;;;5078620;28;20585;-80
2021/07/24 05:16:13;;;;;;;7.67;6.97;;;21.50;99.90;;;;;;5076768;28;20165;-80
2021/07/24 05:18:39;;;;;;;8.10;7.30;;;21.50;99.90;;;;;;5075985;28;20168;-80
2021/07/24 05:21:04;;;;;;;7.83;7.13;;;21.60;99.90;;;;;;5075097;28;20188;-80
2021/07/24 05:23:30;;;;;;;8.07;7.27;;;21.60;99.90;;;;;;5075767;28;20186;-80
2021/07/24 05:25:56;;;;;;;8.93;7.03;;;21.70;99.90;;;;;;5074763;28;20179;-80
2021/07/24 05:28:22;;;;;;;7.60;6.80;;;21.70;99.90;;;;;;5074003;28;20168;-80
2021/07/24 05:30:47;;;;;;;6.97;6.37;;;21.80;99.90;;;;;;5078369;28;20211;-80
2021/07/24 05:33:13;;;;;;;7.00;6.40;;;21.90;99.90;;;;;;5074932;28;20620;-80
2021/07/24 05:35:39;;;;;;;7.67;6.87;;;21.90;99.90;;;;;;5074760;28;20175;-81
2021/07/24 05:38:04;;;;;;;7.90;7.20;;;22.00;99.90;;;;;;5074857;28;20161;-80
2021/07/24 05:40:30;;;;;;;7.50;6.57;;;22.10;99.90;;;;;;5073953;28;20724;-81
2021/07/24 05:43:00;;;;;;;8.20;6.10;;;22.30;99.90;;;;;;5074865;28;20636;-80
2021/07/24 05:45:26;;;;;;;7.53;6.80;;;22.30;99.90;;;;;;5072665;28;20183;-80
2021/07/24 05:47:52;;;;;;;6.60;5.97;;;22.50;99.90;;;;;;5074159;28;20559;-80
2021/07/24 05:50:18;;;;;;;7.40;6.80;;;22.60;99.90;;;;;;5072142;28;20632;-81
2021/07/24 05:52:44;;;;;;;7.47;6.67;;;22.70;99.90;;;;;;5074145;28;20183;-81
2021/07/24 05:55:10;;;;;;;6.40;5.90;;;22.80;99.90;;;;;;5072808;28;20172;-81
2021/07/24 05:57:37;;;;;;;7.93;6.97;;;23.00;99.90;;;;;;5073872;28;20176;-81
2021/07/24 06:00:08;;;;;;;7.00;6.20;;;23.10;99.90;;;;;;5055471;28;20578;-81
2021/07/24 06:02:38;;;;;;;6.50;5.90;;;23.30;99.90;;;;;;5073635;28;20605;-80
2021/07/24 06:05:05;;;;;;;7.60;6.03;;;23.50;99.90;;;;;;5073531;28;20570;-80
2021/07/24 06:07:31;;;;;;;7.17;6.23;;;23.80;99.90;;;;;;5084764;28;20590;-80
2021/07/24 06:09:57;;;;;;;6.77;6.17;;;24.00;99.90;;;;;;5073695;28;20563;-81
2021/07/24 06:12:23;;;;;;;7.57;6.97;;;24.10;99.90;;;;;;5074622;28;20614;-81
2021/07/24 06:14:48;;;;;;;6.47;5.97;;;24.30;99.90;;;;;;5073692;28;20165;-80
2021/07/24 06:17:14;;;;;;;7.47;6.77;;;24.50;99.90;;;;;;5075403;28;20176;-81
2021/07/24 06:19:40;;;;;;;6.60;5.80;;;24.70;99.90;;;;;;5073694;28;20157;-81
2021/07/24 06:22:05;;;;;;;6.87;6.27;;;24.80;99.90;;;;;;5073110;28;20196;-81
2021/07/24 06:24:31;;;;;;;7.00;6.07;;;24.90;99.90;;;;;;5073638;28;20179;-81
2021/07/24 06:26:57;;;;;;;6.00;5.40;;;25.00;99.90;;;;;;5073093;28;20766;-81
2021/07/24 06:29:23;;;;;;;6.77;5.80;;;25.10;99.90;;;;;;5073632;28;20243;-81
2021/07/24 06:31:48;;;;;;;6.83;6.20;;;25.20;99.90;;;;;;5072464;28;20292;-81
2021/07/24 06:34:14;;;;;;;6.20;5.67;;;25.20;99.90;;;;;;5072320;28;20226;-79
2021/07/24 06:36:40;;;;;;;6.47;5.87;;;25.20;99.90;;;;;;5072698;28;20168;-80
2021/07/24 06:39:06;;;;;;;8.53;6.10;;;25.20;99.90;;;;;;5072058;28;20171;-81
2021/07/24 06:41:34;;;;;;;6.53;5.30;;;25.20;99.90;;;;;;5071772;28;20574;-80
2021/07/24 06:44:02;;;;;;;5.73;5.23;;;25.20;99.90;;;;;;5078637;28;20563;-80
2021/07/24 06:46:28;;;;;;;5.90;5.40;;;25.20;99.90;;;;;;5055782;28;20559;-80
2021/07/24 06:48:54;;;;;;;6.23;5.63;;;25.30;99.90;;;;;;5073835;28;20566;-81
2021/07/24 06:51:19;;;;;;;6.47;5.87;;;25.30;99.90;;;;;;5072832;28;20196;-80
2021/07/24 06:53:45;;;;;;;8.50;6.50;;;25.40;99.90;;;;;;5073911;28;20161;-81
2021/07/24 06:56:11;;;;;;;6.73;6.13;;;25.40;99.90;;;;;;5072610;28;20620;-80
2021/07/24 06:58:37;;;;;;;7.17;6.10;;;25.50;99.90;;;;;;5073125;28;20701;-80
2021/07/24 07:01:09;;;;;;;7.10;6.50;;;25.50;99.90;;;;;;5072153;28;20184;-80
2021/07/24 07:03:35;;;;;;;6.47;5.87;;;25.50;99.90;;;;;;5071257;28;20219;-80
2021/07/24 07:06:06;;;;;;;6.23;5.63;;;25.60;99.90;;;;;;5072416;28;20619;-80
2021/07/24 07:08:33;;;;;;;5.73;5.23;;;25.80;99.90;;;;;;5072379;28;20573;-80
2021/07/24 07:11:03;;;;;;;6.70;6.10;;;25.90;99.90;;;;;;5054642;28;21228;-80
2021/07/24 07:13:29;;;;;;;8.07;5.90;;;26.00;99.90;;;;;;5072101;28;20563;-80
2021/07/24 07:15:55;;;;;;;6.00;5.50;;;26.20;99.90;;;;;;5072257;28;20573;-80
2021/07/24 07:18:21;;;;;;;7.10;6.50;;;26.50;99.90;;;;;;5072472;28;20563;-79
2021/07/24 07:20:47;;;;;;;7.00;6.40;;;26.80;99.90;;;;;;5075307;28;20192;-78
2021/07/24 07:23:13;;;;;;;6.90;6.20;;;26.90;99.90;;;;;;5072445;28;20237;-79
2021/07/24 07:25:38;;;;;;;6.47;5.87;;;27.00;99.90;;;;;;5071982;28;20567;-78
2021/07/24 07:28:04;;;;;;;7.23;6.60;;;27.10;99.90;;;;;;5072157;28;20172;-78
2021/07/24 07:30:30;;;;;;;7.10;6.50;;;27.10;99.40;;;;;;5072429;28;20238;-78
2021/07/24 07:32:56;;;;;;;8.50;6.90;;;27.00;99.10;;;;;;5070725;28;20160;-79
2021/07/24 07:35:21;;;;;;;7.70;6.40;;;26.90;98.70;;;;;;5071931;28;20597;-79
2021/07/24 07:37:51;;;;;;;8.13;5.90;;;26.70;98.50;;;;;;5071916;28;20534;-80
2021/07/24 07:40:18;;;;;;;6.70;6.10;;;26.60;98.60;;;;;;5071605;28;20701;-79
2021/07/24 07:42:44;;;;;;;6.73;6.13;;;26.50;98.50;;;;;;5070935;28;20586;-80
2021/07/24 07:45:10;;;;;;;9.03;6.63;;;26.40;98.70;;;;;;5070741;28;20566;-80
2021/07/24 07:47:37;;;;;;;6.53;5.90;;;26.40;98.90;;;;;;5070488;28;20259;-80
2021/07/24 07:50:07;;;;;;;6.03;5.40;;;26.50;99.00;;;;;;5071539;28;20656;-80
2021/07/24 07:52:33;;;;;;;6.70;5.90;;;26.50;99.20;;;;;;5071696;28;20611;-80
2021/07/24 07:55:00;;;;;;;7.60;7.00;;;26.60;99.30;;;;;;5037527;28;20570;-79
2021/07/24 07:57:26;;;;;;;6.50;5.90;;;26.70;99.10;;;;;;5077059;28;20559;-79
2021/07/24 08:00:02;;;;;;;5.57;5.17;;;26.90;99.20;;;;;;5071483;28;21126;-79
2021/07/24 08:02:37;;;;;;;7.53;6.80;;;26.90;98.50;;;;;;5070801;28;20187;-79
2021/07/24 08:05:04;;;;;;;8.17;7.47;;;27.00;98.10;;;;;;5071878;28;20651;-79
2021/07/24 08:07:29;;;;;;;7.00;6.40;;;26.80;97.40;;;;;;5071508;28;20168;-79
2021/07/24 08:09:56;;;;;;;6.47;5.87;;;26.70;97.50;;;;;;5071282;28;21183;-79
2021/07/24 08:12:24;;;;;;;8.23;6.23;;;26.70;97.20;;;;;;5071670;28;20208;-79
2021/07/24 08:14:50;;;;;;;6.60;5.80;;;26.60;97.50;;;;;;5072898;28;20612;-79
2021/07/24 08:17:18;;;;;;;7.10;6.40;;;26.50;97.20;;;;;;5071540;28;20555;-79
2021/07/24 08:19:44;;;;;;;7.07;6.37;;;26.30;97.20;;;;;;5072165;28;20214;-79
2021/07/24 08:22:10;;;;;;;7.60;6.80;;;26.20;97.40;;;;;;5072654;28;20602;-79
2021/07/24 08:24:36;;;;;;;8.03;7.23;;;26.10;97.70;;;;;;5072242;28;20558;-79
2021/07/24 08:27:01;;;;;;;6.57;5.87;;;26.00;97.90;;;;;;5071413;28;20220;-79
2021/07/24 08:29:30;;;;;;;7.10;6.40;;;26.00;98.00;;;;;;5072042;28;20164;-79
2021/07/24 08:32:20;;;;;;;10.80;7.27;;;25.90;98.10;;;;;;5074317;28;20726;-79
2021/07/24 08:34:50;;;;;;;7.40;6.80;;;25.70;98.10;;;;;;5059390;28;20575;-79
2021/07/24 08:37:17;;;;;;;6.83;5.97;;;25.70;98.30;;;;;;5092390;28;20570;-79
2021/07/24 08:39:44;;;;;;;8.17;7.17;;;25.60;98.40;;;;;;5078179;28;20592;-79
2021/07/24 08:42:31;;;;;;;11.40;6.67;;;25.50;98.40;;;;;;5102008;28;21168;-79
2021/07/24 08:44:59;;;;;;;7.23;6.53;;;25.40;98.80;;;;;;5062793;28;20975;-80
2021/07/24 08:47:26;;;;;;;7.93;7.23;;;25.40;98.80;;;;;;5092045;28;20595;-79
2021/07/24 08:49:52;;;;;;;6.53;5.73;;;25.30;98.80;;;;;;5074826;28;21014;-80
2021/07/24 08:52:20;;;;;;;6.47;5.93;;;25.30;98.90;;;;;;5086835;28;20662;-79
2021/07/24 08:54:46;;;;;;;6.70;6.10;;;25.20;99.00;;;;;;5105440;28;20168;-80
2021/07/24 08:57:16;;;;;;;7.40;6.23;;;25.20;99.20;;;;;;5095026;28;20924;-80
2021/07/24 08:59:43;;;;;;;8.27;6.77;;;25.20;99.30;;;;;;5094837;28;20706;-80
2021/07/24 09:02:10;;;;;;;6.97;6.37;;;25.10;99.40;;;;;;5109925;28;20689;-80
2021/07/24 09:04:36;;;;;;;7.47;6.77;;;25.10;99.70;;;;;;5117584;28;20676;-80
2021/07/24 09:07:06;;;;;;;7.30;6.60;;;25.00;99.50;;;;;;5118353;28;20896;-80
2021/07/24 09:09:32;;;;;;;7.37;6.67;;;24.90;99.90;;;;;;5118382;28;20625;-79
2021/07/24 09:11:59;;;;;;;7.53;6.87;;;24.80;99.70;;;;;;5118396;28;20628;-79
2021/07/24 09:14:25;;;;;;;7.37;6.67;;;24.80;99.90;;;;;;5098331;28;20634;-80
2021/07/24 09:16:51;;;;;;;6.33;5.73;;;24.90;99.90;;;;;;5098450;28;20552;-80
2021/07/24 09:19:17;;;;;;;8.17;7.40;;;24.90;99.90;;;;;;5081635;28;20569;-80
2021/07/24 09:21:43;;;;;;;7.47;6.67;;;24.90;99.90;;;;;;5116354;28;21007;-79
2021/07/24 09:24:23;;;;;;;8.27;7.47;;;24.80;99.90;;;;;;5081276;28;20660;-79
2021/07/24 09:26:50;;;;;;;7.90;7.20;;;24.70;99.90;;;;;;5097451;28;20175;-80
2021/07/24 09:29:20;;;;;;;7.30;6.50;;;24.70;99.90;;;;;;5116443;28;20989;-79
2021/07/24 09:31:47;;;;;;;7.30;6.60;;;24.70;99.90;;;;;;5115159;28;20630;-80
2021/07/24 09:34:15;;;;;;;7.83;7.17;;;24.60;99.90;;;;;;5098659;28;20564;-80
2021/07/24 09:36:44;;;;;;;10.77;7.20;;;24.60;99.90;;;;;;5115856;28;20583;-80
2021/07/24 09:39:18;;;;;;;8.00;6.87;;;24.60;99.90;;;;;;5099556;28;20561;-80
2021/07/24 09:41:48;;;;;;;7.57;6.93;;;24.50;99.90;;;;;;5116928;28;20646;-79
2021/07/24 09:44:30;;;;;;;7.40;6.67;;;24.60;99.90;;;;;;5116345;28;20718;-80
2021/07/24 09:46:57;;;;;;;8.03;7.13;;;24.60;99.90;;;;;;5102598;28;20560;-79
2021/07/24 09:49:37;;;;;;;8.50;7.80;;;24.60;99.90;;;;;;5115655;28;20572;-79
2021/07/24 09:52:14;;;;;;;9.50;8.50;;;24.60;99.90;;;;;;5097947;28;20995;-79
2021/07/24 09:54:41;;;;;;;12.80;8.87;;;24.60;99.90;;;;;;5087572;28;20690;-86
2021/07/24 09:57:07;;;;;;;8.97;8.20;;;24.60;99.90;;;;;;5092048;28;20609;-86
2021/07/24 09:59:35;;;;;;;9.73;8.67;;;24.70;99.90;;;;;;5104945;28;20576;-85
2021/07/24 10:02:06;;;;;;;9.40;8.10;;;24.60;99.90;;;;;;5111272;28;20643;-84
2021/07/24 10:04:37;;;;;;;11.43;9.67;;;24.60;99.90;;;;;;5088864;28;21125;-86
2021/07/24 10:07:12;;;;;;;9.13;8.20;;;24.70;99.90;;;;;;5097116;28;20581;-86
2021/07/24 10:09:43;;;;;;;10.77;9.40;;;24.70;99.90;;;;;;5087607;28;20679;-85
2021/07/24 10:12:13;;;;;;;9.70;8.70;;;24.70;99.90;;;;;;5076003;28;21243;-86
2021/07/24 10:14:39;;;;;;;9.50;7.67;;;24.60;99.90;;;;;;5112125;28;21140;-87
2021/07/24 10:17:06;;;;;;;7.57;6.83;;;24.70;99.90;;;;;;5101895;28;20580;-86
2021/07/24 10:19:32;;;;;;;8.37;7.50;;;24.70;99.90;;;;;;5101815;28;21115;-85
2021/07/24 10:21:59;;;;;;;8.93;8.03;;;24.70;99.90;;;;;;5104486;28;20608;-86
2021/07/24 10:24:26;;;;;;;9.60;7.63;;;24.80;99.90;;;;;;5128584;28;20568;-86
2021/07/24 10:27:17;;;;;;;8.60;7.27;;;24.90;99.90;;;;;;5109203;28;20590;-86
2021/07/24 10:29:45;;;;;;;7.43;6.83;;;24.90;99.90;;;;;;5093027;28;20602;-86
2021/07/24 10:32:14;;;;;;;8.77;8.00;;;24.90;99.90;;;;;;5104758;28;20632;-85
2021/07/24 10:34:48;;;;;;;7.70;7.00;;;24.90;99.90;;;;;;5123343;28;20561;-86
2021/07/24 10:37:44;;;;;;;8.33;7.53;;;25.00;99.90;;;;;;5120299;28;20596;-86
2021/07/24 10:40:27;;;;;;;9.47;7.13;;;25.00;99.90;;;;;;5123301;28;20584;-86
2021/07/24 10:42:54;;;;;;;10.33;7.63;;;25.10;99.90;;;;;;5102646;28;20924;-86
2021/07/24 10:45:33;;;;;;;8.03;7.33;;;25.20;99.90;;;;;;5119971;28;20576;-86
2021/07/24 10:48:14;;;;;;;8.80;8.00;;;25.20;99.90;;;;;;5118943;28;20557;-86
2021/07/24 10:51:03;;;;;;;9.43;8.30;;;25.30;99.90;;;;;;5099781;28;20954;-86
2021/07/24 10:54:00;;;;;;;8.27;7.47;;;25.30;99.90;;;;;;5107842;28;20581;-85
2021/07/24 10:56:42;;;;;;;8.20;7.43;;;25.40;99.90;;;;;;5098704;28;20602;-82
2021/07/24 10:59:14;;;;;;;10.30;7.87;;;25.50;99.90;;;;;;5115291;28;20563;-83
2021/07/24 11:01:47;;;;;;;9.20;8.40;;;25.50;99.90;;;;;;5084437;28;21006;-83
2021/07/24 11:04:35;;;;;;;10.30;8.90;;;25.60;99.90;;;;;;5099218;28;20587;-83
2021/07/24 11:07:13;;;;;;;9.00;8.10;;;25.50;99.90;;;;;;5116209;28;20557;-83
2021/07/24 11:09:40;;;;;;;8.73;8.00;;;25.50;99.90;;;;;;5116079;28;20628;-83
2021/07/24 11:12:07;;;;;;;8.90;8.00;;;25.50;99.90;;;;;;5103617;28;20726;-83
2021/07/24 11:14:42;;;;;;;9.40;8.50;;;25.40;99.90;;;;;;5119775;28;20541;-83
2021/07/24 11:17:08;;;;;;;9.33;8.53;;;25.20;99.90;;;;;;5103213;28;20611;-83
2021/07/24 11:19:41;;;;;;;9.00;8.13;;;25.00;99.90;;;;;;5104162;28;20565;-83
2021/07/24 11:22:15;;;;;;;12.80;10.10;;;24.90;99.90;;;;;;5103973;28;20586;-83
2021/07/24 11:24:46;;;;;;;9.70;8.70;;;24.70;99.90;;;;;;5093915;28;20583;-83
2021/07/24 11:27:12;;;;;;;11.33;10.23;;;24.50;99.90;;;;;;5097810;28;20606;-83
2021/07/24 11:29:38;;;;;;;10.50;9.50;;;24.40;99.90;;;;;;5137200;28;20592;-82
2021/07/24 11:32:05;;;;;;;9.53;8.23;;;24.30;99.90;;;;;;5119584;28;20655;-83
2021/07/24 11:34:32;;;;;;;10.57;9.50;;;24.20;99.90;;;;;;5118932;28;20564;-83
2021/07/24 11:37:02;;;;;;;11.07;9.97;;;24.20;99.90;;;;;;5118380;28;20565;-85
2021/07/24 11:39:30;;;;;;;10.43;9.53;;;24.10;99.90;;;;;;5114887;28;20573;-84
2021/07/24 11:41:57;;;;;;;9.47;8.57;;;24.00;99.90;;;;;;5131601;28;20603;-86
2021/07/24 11:44:32;;;;;;;10.60;9.37;;;23.90;99.90;;;;;;5113590;28;20641;-85
2021/07/24 11:47:03;;;;;;;12.67;10.77;;;23.80;99.90;;;;;;5094882;28;20618;-85
2021/07/24 11:49:32;;;;;;;11.20;10.10;;;23.70;99.90;;;;;;5092345;28;20560;-87
2021/07/24 11:51:58;;;;;;;12.13;11.07;;;23.60;99.90;;;;;;5105858;28;20713;-86
2021/07/24 11:54:29;;;;;;;12.30;11.00;;;23.40;99.90;;;;;;5105825;28;20580;-86
2021/07/24 11:56:55;;;;;;;11.87;10.67;;;23.30;99.90;;;;;;5101797;28;20580;-86
2021/07/24 11:59:22;;;;;;;12.60;11.40;;;23.10;99.90;;;;;;5084742;28;20647;-86
2021/07/24 12:01:47;;;;;;;11.23;10.10;;;23.00;99.90;;;;;;5085039;28;20620;-86
2021/07/24 12:04:16;;;;;;;12.77;11.57;;;22.90;99.90;;;;;;5100135;28;20659;-86
2021/07/24 12:06:58;;;;;;;11.67;10.67;;;22.80;99.90;;;;;;5086273;28;20232;-87
2021/07/24 12:09:24;;;;;;;11.77;10.67;;;22.80;99.90;;;;;;5087562;28;20580;-86
2021/07/24 12:11:58;;;;;;;12.23;10.67;;;22.60;99.90;;;;;;5103115;28;20633;-87
2021/07/24 12:14:28;;;;;;;14.23;12.93;;;22.50;99.90;;;;;;5089852;28;20580;-87
2021/07/24 12:17:08;;;;;;;13.70;12.50;;;22.30;99.90;;;;;;5090774;28;20577;-87
2021/07/24 12:19:39;;;;;;;13.47;12.27;;;22.20;99.90;;;;;;5105697;28;20620;-87
2021/07/24 12:22:13;;;;;;;13.13;12.00;;;22.00;99.90;;;;;;5103839;28;20624;-87
2021/07/24 12:24:39;;;;;;;15.43;13.00;;;21.90;99.90;;;;;;5102733;28;20579;-87
2021/07/24 12:27:07;;;;;;;14.70;13.30;;;21.80;99.90;;;;;;5087099;28;20633;-88
2021/07/24 12:32:40;;;;;;;13.33;12.03;;;21.70;99.90;;;;;;5069580;22;21040;-86
2021/07/24 12:35:14;;;;;;;15.07;13.57;;;21.60;99.90;;;;;;4986510;28;20587;-87
2021/07/24 12:37:43;;;;;;;15.20;13.70;;;21.60;99.90;;;;;;4991855;28;20571;-88
2021/07/24 12:40:20;;;;;;;15.00;13.53;;;21.60;99.90;;;;;;4958416;28;20611;-86
2021/07/24 12:42:48;;;;;;;14.40;13.10;;;21.50;99.90;;;;;;4978521;28;20600;-87
2021/07/24 12:45:31;;;;;;;14.83;13.40;;;21.60;99.90;;;;;;4975832;28;20570;-85
2021/07/24 12:48:19;;;;;;;14.20;12.90;;;21.60;99.90;;;;;;4992289;28;20597;-86
2021/07/24 12:51:08;;;;;;;13.10;11.80;;;21.60;99.90;;;;;;4980655;28;20630;-85
2021/07/24 12:53:34;;;;;;;14.30;12.90;;;21.70;99.90;;;;;;4952079;29;20576;-86
2021/07/24 12:56:00;;;;;;;15.70;14.30;;;21.70;99.90;;;;;;4952251;28;20613;-81
2021/07/24 12:58:27;;;;;;;15.70;14.20;;;21.70;99.90;;;;;;4971536;28;20585;-79